createdAt,value
2022-11-26T00:02:19.095Z,6.20
2022-11-26T00:04:47.232Z,6.20
2022-11-26T00:07:16.991Z,6.20
2022-11-26T00:09:45.299Z,6.20
2022-11-26T00:12:16.489Z,6.20
2022-11-26T00:14:44.556Z,6.20
2022-11-26T00:17:12.935Z,6.20
2022-11-26T00:19:43.191Z,6.20
2022-11-26T00:22:16.683Z,6.20
2022-11-26T00:24:44.693Z,6.10
2022-11-26T00:27:12.840Z,6.10
2022-11-26T00:29:40.813Z,6.10
2022-11-26T00:32:15.718Z,6.10
2022-11-26T00:34:45.122Z,6.10
2022-11-26T00:37:19.632Z,6.10
2022-11-26T00:39:47.958Z,6.00
2022-11-26T00:42:15.964Z,6.00
2022-11-26T00:44:43.961Z,6.00
2022-11-26T00:47:12.484Z,6.00
2022-11-26T00:49:40.465Z,5.90
2022-11-26T00:52:20.483Z,5.90
2022-11-26T00:54:48.470Z,5.90
2022-11-26T00:57:16.661Z,5.80
2022-11-26T00:59:44.621Z,5.80
2022-11-26T01:02:12.637Z,5.80
2022-11-26T01:04:40.623Z,5.70
2022-11-26T01:07:10.199Z,5.70
2022-11-26T01:09:39.744Z,5.70
2022-11-26T01:12:08.611Z,5.70
2022-11-26T01:14:36.935Z,5.70
2022-11-26T01:17:06.528Z,5.70
2022-11-26T01:19:36.246Z,5.60
2022-11-26T01:22:04.319Z,5.60
2022-11-26T01:24:32.298Z,5.60
2022-11-26T01:27:01.694Z,5.60
2022-11-26T01:29:29.812Z,5.50
2022-11-26T01:31:57.891Z,5.50
2022-11-26T01:34:25.897Z,5.50
2022-11-26T01:36:53.845Z,5.50
2022-11-26T01:39:22.740Z,5.50
2022-11-26T01:41:55.483Z,5.50
2022-11-26T01:44:29.173Z,5.50
2022-11-26T01:46:59.101Z,5.40
2022-11-26T01:49:30.312Z,5.40
2022-11-26T01:52:01.141Z,5.40
2022-11-26T01:54:29.733Z,5.90
2022-11-26T01:56:59.014Z,5.40
2022-11-26T01:59:30.728Z,5.50
2022-11-26T02:01:59.793Z,5.40
2022-11-26T02:04:29.299Z,5.40
2022-11-26T02:06:57.764Z,5.40
2022-11-26T02:09:29.813Z,5.40
2022-11-26T02:11:57.994Z,5.40
2022-11-26T02:14:27.104Z,5.30
2022-11-26T02:17:18.446Z,5.30
2022-11-26T02:20:02.919Z,5.30
2022-11-26T02:22:42.363Z,5.30
2022-11-26T02:25:18.426Z,5.30
2022-11-26T02:27:56.485Z,5.30
2022-11-26T02:30:25.940Z,5.30
2022-11-26T02:32:58.101Z,5.30
2022-11-26T02:35:34.037Z,5.30
2022-11-26T02:38:03.893Z,5.20
2022-11-26T02:40:31.846Z,5.20
2022-11-26T02:42:59.857Z,5.20
2022-11-26T02:45:43.372Z,5.10
2022-11-26T02:48:12.306Z,5.10
2022-11-26T02:50:41.106Z,5.10
2022-11-26T02:53:09.757Z,5.10
2022-11-26T02:55:39.494Z,5.10
2022-11-26T02:58:09.056Z,5.10
2022-11-26T03:00:40.941Z,5.10
2022-11-26T03:03:11.376Z,5.10
2022-11-26T03:05:43.162Z,5.10
2022-11-26T03:08:11.215Z,5.10
2022-11-26T03:10:39.273Z,5.00
2022-11-26T03:13:07.244Z,5.00
2022-11-26T03:15:35.219Z,5.00
2022-11-26T03:18:06.644Z,5.00
2022-11-26T03:20:38.568Z,5.00
2022-11-26T03:23:07.027Z,5.00
2022-11-26T03:25:36.170Z,5.00
2022-11-26T03:28:04.410Z,5.00
2022-11-26T03:30:34.410Z,5.00
2022-11-26T03:33:06.755Z,5.00
2022-11-26T03:35:35.252Z,4.90
2022-11-26T03:38:06.330Z,5.00
2022-11-26T03:40:34.304Z,4.90
2022-11-26T03:43:02.226Z,4.90
2022-11-26T03:45:30.374Z,4.90
2022-11-26T03:47:58.370Z,4.90
2022-11-26T03:50:32.789Z,4.90
2022-11-26T03:53:00.740Z,4.90
2022-11-26T03:55:28.742Z,4.90
2022-11-26T03:57:56.693Z,4.90
2022-11-26T04:00:26.580Z,4.90
2022-11-26T04:02:54.594Z,4.90
2022-11-26T04:05:22.566Z,4.80
2022-11-26T04:07:58.198Z,4.80
2022-11-26T04:10:26.198Z,4.80
2022-11-26T04:12:54.142Z,4.80
2022-11-26T04:15:22.660Z,4.80
2022-11-26T04:17:53.386Z,4.30
2022-11-26T04:20:23.897Z,4.80
2022-11-26T04:22:53.231Z,4.80
2022-11-26T04:25:24.486Z,4.70
2022-11-26T04:27:58.449Z,4.70
2022-11-26T04:30:30.025Z,4.70
2022-11-26T04:32:58.142Z,4.80
2022-11-26T04:35:26.106Z,4.70
2022-11-26T04:37:55.475Z,4.70
2022-11-26T04:40:25.366Z,4.70
2022-11-26T04:42:53.441Z,4.70
2022-11-26T04:45:21.420Z,4.70
2022-11-26T04:48:00.326Z,4.70
2022-11-26T04:50:28.497Z,4.70
2022-11-26T04:52:58.517Z,4.70
2022-11-26T04:55:29.801Z,4.60
2022-11-26T04:57:57.742Z,4.60
2022-11-26T05:00:25.840Z,4.60
2022-11-26T05:02:58.851Z,4.50
2022-11-26T05:05:26.873Z,4.50
2022-11-26T05:08:03.309Z,4.50
2022-11-26T05:10:32.714Z,4.50
2022-11-26T05:13:01.989Z,4.40
2022-11-26T05:15:29.980Z,4.40
2022-11-26T05:17:57.937Z,4.40
2022-11-26T05:20:25.928Z,4.30
2022-11-26T05:22:53.945Z,4.30
2022-11-26T05:25:22.070Z,4.30
2022-11-26T05:27:51.445Z,4.30
2022-11-26T05:30:19.494Z,4.20
2022-11-26T05:32:47.584Z,4.20
2022-11-26T05:35:15.562Z,4.20
2022-11-26T05:37:45.951Z,4.10
2022-11-26T05:40:14.217Z,4.10
2022-11-26T05:42:59.127Z,4.10
2022-11-26T05:45:28.352Z,4.10
2022-11-26T05:47:56.363Z,4.10
2022-11-26T05:50:24.342Z,4.10
2022-11-26T05:52:52.303Z,4.10
2022-11-26T05:55:22.188Z,4.10
2022-11-26T05:57:50.139Z,4.00
2022-11-26T06:00:19.875Z,4.00
2022-11-26T06:02:47.982Z,4.00
2022-11-26T06:05:15.970Z,4.00
2022-11-26T06:07:45.065Z,4.00
2022-11-26T06:10:18.427Z,4.00
2022-11-26T06:12:54.047Z,4.00
2022-11-26T06:15:26.418Z,4.00
2022-11-26T06:17:54.508Z,4.00
2022-11-26T06:20:22.434Z,4.00
2022-11-26T06:22:50.379Z,3.90
2022-11-26T06:25:18.476Z,3.90
2022-11-26T06:27:46.981Z,3.90
2022-11-26T06:30:15.495Z,4.00
2022-11-26T06:32:44.789Z,4.00
2022-11-26T06:35:12.804Z,4.00
2022-11-26T06:37:40.793Z,4.00
2022-11-26T06:40:10.177Z,4.00
2022-11-26T06:42:38.128Z,4.00
2022-11-26T06:45:06.398Z,4.00
2022-11-26T06:47:34.356Z,4.00
2022-11-26T06:50:09.277Z,4.10
2022-11-26T06:52:38.732Z,4.10
2022-11-26T06:55:07.043Z,4.10
2022-11-26T06:57:35.068Z,4.10
2022-11-26T07:00:03.329Z,4.10
2022-11-26T07:02:31.409Z,4.10
2022-11-26T07:04:59.518Z,4.10
2022-11-26T07:07:30.327Z,4.20
2022-11-26T07:10:00.259Z,4.20
2022-11-26T07:12:28.179Z,4.20
2022-11-26T07:14:56.108Z,4.20
2022-11-26T07:17:24.065Z,4.20
2022-11-26T07:19:52.031Z,4.30
2022-11-26T07:22:20.014Z,4.30
2022-11-26T07:24:49.294Z,4.30
2022-11-26T07:27:17.233Z,4.30
2022-11-26T07:29:45.288Z,4.30
2022-11-26T07:32:13.228Z,4.40
2022-11-26T07:34:41.457Z,4.40
2022-11-26T07:37:09.657Z,4.40
2022-11-26T07:39:37.676Z,4.40
2022-11-26T07:42:07.084Z,4.40
2022-11-26T07:44:35.092Z,4.40
2022-11-26T07:47:04.394Z,4.40
2022-11-26T07:49:32.377Z,4.50
2022-11-26T07:52:00.357Z,4.50
2022-11-26T07:54:28.364Z,4.50
2022-11-26T07:56:56.383Z,4.50
2022-11-26T07:59:25.781Z,4.60
2022-11-26T08:01:53.821Z,4.60
2022-11-26T08:04:21.782Z,4.60
2022-11-26T08:06:49.741Z,4.60
2022-11-26T08:09:19.101Z,4.60
2022-11-26T08:11:47.176Z,4.70
2022-11-26T08:14:15.204Z,4.70
2022-11-26T08:16:44.641Z,4.70
2022-11-26T08:19:13.642Z,4.60
2022-11-26T08:21:41.830Z,4.70
2022-11-26T08:24:14.276Z,4.70
2022-11-26T08:26:44.186Z,4.70
2022-11-26T08:29:12.705Z,4.70
2022-11-26T08:31:47.485Z,4.70
2022-11-26T08:34:16.467Z,4.80
2022-11-26T08:36:44.912Z,4.80
2022-11-26T08:39:13.465Z,4.80
2022-11-26T08:41:41.467Z,4.80
2022-11-26T08:44:09.510Z,4.80
2022-11-26T08:46:37.925Z,4.90
2022-11-26T08:49:12.033Z,4.90
2022-11-26T08:51:43.385Z,4.80
2022-11-26T08:54:19.289Z,4.90
2022-11-26T08:56:47.710Z,4.90
2022-11-26T08:59:16.228Z,5.00
2022-11-26T09:01:44.442Z,5.00
2022-11-26T09:04:13.948Z,5.00
2022-11-26T09:06:42.272Z,5.00
2022-11-26T09:09:17.654Z,5.00
2022-11-26T09:11:47.294Z,5.10
2022-11-26T09:14:15.872Z,5.10
2022-11-26T09:16:44.035Z,5.10
2022-11-26T09:19:12.832Z,5.10
2022-11-26T09:21:42.436Z,5.10
2022-11-26T09:24:10.521Z,5.20
2022-11-26T09:26:38.783Z,5.20
2022-11-26T09:29:06.952Z,5.20
2022-11-26T09:31:34.987Z,5.20
2022-11-26T09:34:03.526Z,5.30
2022-11-26T09:36:31.480Z,5.30
2022-11-26T09:39:03.453Z,5.30
2022-11-26T09:41:56.863Z,5.30
2022-11-26T09:44:30.871Z,5.40
2022-11-26T09:47:12.174Z,5.40
2022-11-26T09:49:43.934Z,5.40
2022-11-26T09:52:14.404Z,5.40
2022-11-26T09:54:51.523Z,5.50
2022-11-26T09:57:22.962Z,5.50
2022-11-26T09:59:51.477Z,5.60
2022-11-26T10:02:19.596Z,5.60
2022-11-26T10:04:50.060Z,5.70
2022-11-26T10:07:29.674Z,5.70
2022-11-26T10:10:05.287Z,5.70
2022-11-26T10:13:10.898Z,5.80
2022-11-26T10:15:40.953Z,5.80
2022-11-26T10:18:16.171Z,5.80
2022-11-26T10:21:02.181Z,5.90
2022-11-26T10:23:34.515Z,5.90
2022-11-26T10:26:06.820Z,5.90
2022-11-26T10:28:40.242Z,6.00
2022-11-26T10:31:14.060Z,6.00
2022-11-26T10:33:47.979Z,6.10
2022-11-26T10:36:19.296Z,6.10
2022-11-26T10:38:47.246Z,6.10
2022-11-26T10:41:16.917Z,6.20
2022-11-26T10:43:44.937Z,6.20
2022-11-26T10:46:30.448Z,6.20
2022-11-26T10:49:18.553Z,6.30
2022-11-26T10:51:48.479Z,6.30
2022-11-26T10:54:34.293Z,6.30
2022-11-26T10:57:13.504Z,6.40
2022-11-26T10:59:45.900Z,6.40
2022-11-26T11:02:25.831Z,6.40
2022-11-26T11:04:54.561Z,6.50
2022-11-26T11:07:37.007Z,6.50
2022-11-26T11:10:06.419Z,6.60
2022-11-26T11:12:38.669Z,6.60
2022-11-26T11:15:20.963Z,6.60
2022-11-26T11:17:55.912Z,6.60
2022-11-26T11:20:33.299Z,6.70
2022-11-26T11:23:05.720Z,6.70
2022-11-26T11:25:36.754Z,6.70
2022-11-26T11:28:12.390Z,6.80
2022-11-26T11:30:42.106Z,6.80
2022-11-26T11:33:11.300Z,6.80
2022-11-26T11:35:39.388Z,6.90
2022-11-26T11:38:19.062Z,6.80
2022-11-26T11:40:47.087Z,6.90
2022-11-26T11:43:19.733Z,6.90
2022-11-26T11:45:53.392Z,6.90
2022-11-26T11:48:31.272Z,6.90
2022-11-26T11:51:08.907Z,6.40
2022-11-26T11:53:39.807Z,6.90
2022-11-26T11:56:17.985Z,6.90
2022-11-26T11:59:00.798Z,6.90
2022-11-26T12:01:38.128Z,6.90
2022-11-26T12:04:29.766Z,6.90
2022-11-26T12:07:14.723Z,6.90
2022-11-26T12:09:45.468Z,6.90
2022-11-26T12:12:18.680Z,6.90
2022-11-26T12:14:50.456Z,6.90
2022-11-26T12:17:26.764Z,6.90
2022-11-26T12:20:00.224Z,7.30
2022-11-26T12:22:29.782Z,6.90
2022-11-26T12:24:58.892Z,6.90
2022-11-26T12:27:31.578Z,6.90
2022-11-26T12:30:02.983Z,6.90
2022-11-26T12:32:35.946Z,6.90
2022-11-26T12:35:07.292Z,6.90
2022-11-26T12:37:38.059Z,6.80
2022-11-26T12:40:09.065Z,6.80
2022-11-26T12:42:41.913Z,6.80
2022-11-26T12:45:18.748Z,6.90
2022-11-26T12:47:51.730Z,7.20
2022-11-26T12:50:26.223Z,6.90
2022-11-26T12:52:59.774Z,6.90
2022-11-26T12:55:29.649Z,6.90
2022-11-26T12:58:01.736Z,6.90
2022-11-26T13:00:36.005Z,6.90
2022-11-26T13:03:09.154Z,6.90
2022-11-26T13:05:48.623Z,6.90
2022-11-26T13:08:28.098Z,6.90
2022-11-26T13:11:15.559Z,6.80
2022-11-26T13:13:48.081Z,6.80
2022-11-26T13:16:21.445Z,6.80
2022-11-26T13:18:56.687Z,6.90
2022-11-26T13:21:32.026Z,6.90
2022-11-26T13:24:08.058Z,6.90
2022-11-26T13:26:43.662Z,6.90
2022-11-26T13:29:31.114Z,6.90
2022-11-26T13:32:12.737Z,7.00
2022-11-26T13:34:51.669Z,7.00
2022-11-26T13:37:32.408Z,7.00
2022-11-26T13:40:26.194Z,7.00
2022-11-26T13:43:08.218Z,7.00
2022-11-26T13:45:50.947Z,7.00
2022-11-26T13:48:20.807Z,7.00
2022-11-26T13:50:52.006Z,7.00
2022-11-26T13:53:26.538Z,7.00
2022-11-26T13:55:56.613Z,7.00
2022-11-26T13:58:29.860Z,7.10
2022-11-26T14:00:57.961Z,7.10
2022-11-26T14:03:45.660Z,7.10
2022-11-26T14:06:15.733Z,7.10
2022-11-26T14:08:45.027Z,7.10
2022-11-26T14:11:36.506Z,7.20
2022-11-26T14:14:23.039Z,7.20
2022-11-26T14:17:06.003Z,7.20
2022-11-26T14:19:58.705Z,7.20
2022-11-26T14:22:29.969Z,7.20
2022-11-26T14:24:59.378Z,7.20
2022-11-26T14:27:30.086Z,7.30
2022-11-26T14:30:00.862Z,7.30
2022-11-26T14:32:30.989Z,7.30
2022-11-26T14:34:59.210Z,7.30
2022-11-26T14:37:29.268Z,7.30
2022-11-26T14:40:01.029Z,7.30
2022-11-26T14:42:29.731Z,7.30
2022-11-26T14:45:01.354Z,7.30
2022-11-26T14:47:30.325Z,7.30
2022-11-26T14:49:59.245Z,7.30
2022-11-26T14:52:33.469Z,7.30
2022-11-26T14:55:02.241Z,7.30
2022-11-26T14:57:33.510Z,7.30
2022-11-26T15:00:04.403Z,7.20
2022-11-26T15:02:32.955Z,7.20
2022-11-26T15:05:02.405Z,7.20
2022-11-26T15:07:32.284Z,7.30
2022-11-26T15:10:04.921Z,7.30
2022-11-26T15:12:34.126Z,7.20
2022-11-26T15:15:02.881Z,7.30
2022-11-26T15:17:31.627Z,7.30
2022-11-26T15:20:01.844Z,7.30
2022-11-26T15:22:34.050Z,7.30
2022-11-26T15:25:02.310Z,7.30
2022-11-26T15:27:32.583Z,7.30
2022-11-26T15:30:03.114Z,7.30
2022-11-26T15:32:31.962Z,7.30
2022-11-26T15:35:01.083Z,7.30
2022-11-26T15:37:30.992Z,7.30
2022-11-26T15:40:08.947Z,7.30
2022-11-26T15:42:36.981Z,7.30
2022-11-26T15:45:05.236Z,7.30
2022-11-26T15:47:33.348Z,7.40
2022-11-26T15:50:01.453Z,7.40
2022-11-26T15:52:34.010Z,7.40
2022-11-26T15:55:12.945Z,7.40
2022-11-26T15:57:42.054Z,7.40
2022-11-26T16:00:21.082Z,7.40
2022-11-26T16:02:49.167Z,7.40
2022-11-26T16:05:23.284Z,7.40
2022-11-26T16:07:59.141Z,7.40
2022-11-26T16:10:28.455Z,7.40
2022-11-26T16:13:07.000Z,7.40
2022-11-26T16:15:35.100Z,7.40
2022-11-26T16:18:04.686Z,7.40
2022-11-26T16:20:32.728Z,7.40
2022-11-26T16:23:02.127Z,7.40
2022-11-26T16:25:30.953Z,7.40
2022-11-26T16:28:06.368Z,7.40
2022-11-26T16:30:34.990Z,7.40
2022-11-26T16:33:03.010Z,7.40
2022-11-26T16:35:45.281Z,7.40
2022-11-26T16:38:23.629Z,7.40
2022-11-26T16:40:51.630Z,7.40
2022-11-26T16:43:20.180Z,7.40
2022-11-26T16:45:49.303Z,7.40
2022-11-26T16:48:22.317Z,7.40
2022-11-26T16:50:50.348Z,7.40
2022-11-26T16:53:18.331Z,7.40
2022-11-26T16:55:49.745Z,7.40
2022-11-26T16:58:23.041Z,7.40
2022-11-26T17:00:51.976Z,7.40
2022-11-26T17:03:22.628Z,7.40
2022-11-26T17:05:52.345Z,7.40
2022-11-26T17:08:20.560Z,7.40
2022-11-26T17:10:50.974Z,7.40
2022-11-26T17:13:20.481Z,7.40
2022-11-26T17:16:07.034Z,7.40
2022-11-26T17:18:34.965Z,7.40
2022-11-26T17:21:02.935Z,7.40
2022-11-26T17:23:32.466Z,7.40
2022-11-26T17:26:01.904Z,7.40
2022-11-26T17:28:29.856Z,7.40
2022-11-26T17:31:01.259Z,7.40
2022-11-26T17:33:29.217Z,7.40
2022-11-26T17:35:57.428Z,7.40
2022-11-26T17:38:25.582Z,7.50
2022-11-26T17:40:53.492Z,7.50
2022-11-26T17:43:22.803Z,7.50
2022-11-26T17:45:52.487Z,7.50
2022-11-26T17:48:39.069Z,7.50
2022-11-26T17:51:07.207Z,7.50
2022-11-26T17:53:35.146Z,7.50
2022-11-26T17:56:03.179Z,7.50
2022-11-26T17:58:40.742Z,7.50
2022-11-26T18:01:09.196Z,7.50
2022-11-26T18:03:37.225Z,7.50
2022-11-26T18:06:08.532Z,7.50
2022-11-26T18:08:36.591Z,7.50
2022-11-26T18:11:04.537Z,7.50
2022-11-26T18:13:33.903Z,7.50
2022-11-26T18:16:01.872Z,7.50
2022-11-26T18:18:29.862Z,7.50
2022-11-26T18:20:57.859Z,7.50
2022-11-26T18:23:25.877Z,7.50
2022-11-26T18:25:53.791Z,7.50
2022-11-26T18:28:21.898Z,7.50
2022-11-26T18:30:59.896Z,7.50
2022-11-26T18:33:27.924Z,7.50
2022-11-26T18:35:55.885Z,7.50
2022-11-26T18:38:28.769Z,7.50
2022-11-26T18:41:00.508Z,7.50
2022-11-26T18:43:28.468Z,7.60
2022-11-26T18:45:58.062Z,7.50
2022-11-26T18:48:26.086Z,7.50
2022-11-26T18:50:57.706Z,7.50
2022-11-26T18:53:26.411Z,7.60
2022-11-26T18:55:54.770Z,7.50
2022-11-26T18:58:22.998Z,7.50
2022-11-26T19:00:51.735Z,7.50
2022-11-26T19:03:21.262Z,7.50
2022-11-26T19:05:51.874Z,7.50
2022-11-26T19:08:20.068Z,7.50
2022-11-26T19:10:48.638Z,7.50
2022-11-26T19:13:16.725Z,7.50
2022-11-26T19:15:45.566Z,7.50
2022-11-26T19:18:14.132Z,7.50
2022-11-26T19:20:49.660Z,7.50
2022-11-26T19:23:17.799Z,7.50
2022-11-26T19:25:46.142Z,7.50
2022-11-26T19:28:14.151Z,7.50
2022-11-26T19:30:45.041Z,7.50
2022-11-26T19:33:13.051Z,7.50
2022-11-26T19:35:40.997Z,7.50
2022-11-26T19:38:10.374Z,7.50
2022-11-26T19:40:44.093Z,7.50
2022-11-26T19:43:12.109Z,7.50
2022-11-26T19:45:40.193Z,7.50
2022-11-26T19:48:08.474Z,7.40
2022-11-26T19:50:36.407Z,7.40
2022-11-26T19:53:04.432Z,7.40
2022-11-26T19:55:33.853Z,7.60
2022-11-26T19:58:01.876Z,7.40
2022-11-26T20:00:29.896Z,7.40
2022-11-26T20:02:57.919Z,7.30
2022-11-26T20:05:26.003Z,7.30
2022-11-26T20:07:54.017Z,7.30
2022-11-26T20:10:22.009Z,7.30
2022-11-26T20:12:51.321Z,7.30
2022-11-26T20:15:19.287Z,7.20
2022-11-26T20:17:48.412Z,7.20
2022-11-26T20:20:16.640Z,7.20
2022-11-26T20:22:44.559Z,7.20
2022-11-26T20:25:15.602Z,7.20
2022-11-26T20:27:44.263Z,7.10
2022-11-26T20:30:13.988Z,7.10
2022-11-26T20:32:42.038Z,7.10
2022-11-26T20:35:10.108Z,7.10
2022-11-26T20:37:38.073Z,7.10
2022-11-26T20:40:06.750Z,7.10
2022-11-26T20:42:34.848Z,7.10
2022-11-26T20:45:03.221Z,7.10
2022-11-26T20:47:32.609Z,7.00
2022-11-26T20:50:00.902Z,7.00
2022-11-26T20:52:28.883Z,7.00
2022-11-26T20:54:56.914Z,7.00
2022-11-26T20:57:25.027Z,7.00
2022-11-26T20:59:52.989Z,7.00
2022-11-26T21:02:21.030Z,7.00
2022-11-26T21:04:50.463Z,7.00
2022-11-26T21:07:18.484Z,6.90
2022-11-26T21:09:47.719Z,6.90
2022-11-26T21:12:15.926Z,7.00
2022-11-26T21:14:43.947Z,6.90
2022-11-26T21:17:19.434Z,6.90
2022-11-26T21:19:51.345Z,6.90
2022-11-26T21:22:20.693Z,6.80
2022-11-26T21:24:48.659Z,6.80
2022-11-26T21:27:16.692Z,6.80
2022-11-26T21:29:46.124Z,6.80
2022-11-26T21:32:14.115Z,6.80
2022-11-26T21:34:42.194Z,6.80
2022-11-26T21:37:10.287Z,6.80
2022-11-26T21:39:39.851Z,6.80
2022-11-26T21:42:08.014Z,6.80
2022-11-26T21:44:35.971Z,6.80
2022-11-26T21:47:03.999Z,6.80
2022-11-26T21:49:32.110Z,6.80
2022-11-26T21:52:00.340Z,6.80
2022-11-26T21:54:28.459Z,6.80
2022-11-26T21:56:57.897Z,6.80
2022-11-26T21:59:25.947Z,6.80
2022-11-26T22:01:54.045Z,6.80
2022-11-26T22:04:22.184Z,6.80
2022-11-26T22:06:52.603Z,6.80
2022-11-26T22:09:20.794Z,6.80
2022-11-26T22:11:48.785Z,6.80
2022-11-26T22:14:18.269Z,6.80
2022-11-26T22:16:48.090Z,6.80
2022-11-26T22:19:16.041Z,6.80
2022-11-26T22:21:44.310Z,6.80
2022-11-26T22:24:18.867Z,6.80
2022-11-26T22:26:47.506Z,6.80
2022-11-26T22:29:15.975Z,6.80
2022-11-26T22:31:48.159Z,6.80
2022-11-26T22:34:17.393Z,6.80
2022-11-26T22:36:45.673Z,6.80
2022-11-26T22:39:14.495Z,6.80
2022-11-26T22:41:45.155Z,6.80
2022-11-26T22:44:13.454Z,6.80
2022-11-26T22:46:41.441Z,6.80
2022-11-26T22:49:13.182Z,6.80
2022-11-26T22:51:41.177Z,6.80
2022-11-26T22:54:10.686Z,6.80
2022-11-26T22:56:38.803Z,6.80
2022-11-26T22:59:07.414Z,6.80
2022-11-26T23:01:40.107Z,6.80
2022-11-26T23:04:09.051Z,6.80
2022-11-26T23:06:39.291Z,6.80
2022-11-26T23:09:11.587Z,6.70
2022-11-26T23:11:59.829Z,6.80
2022-11-26T23:14:27.883Z,6.70
2022-11-26T23:16:58.449Z,6.80
2022-11-26T23:19:26.577Z,6.70
2022-11-26T23:21:58.520Z,6.70
2022-11-26T23:24:27.338Z,6.70
2022-11-26T23:26:55.423Z,6.70
2022-11-26T23:29:23.550Z,6.70
2022-11-26T23:31:51.633Z,6.70
2022-11-26T23:34:19.827Z,6.70
2022-11-26T23:36:53.330Z,6.60
2022-11-26T23:39:23.178Z,6.60
2022-11-26T23:41:51.108Z,6.60
2022-11-26T23:44:19.201Z,6.60
2022-11-26T23:46:49.590Z,6.60
2022-11-26T23:49:17.571Z,6.60
2022-11-26T23:51:45.571Z,6.60
2022-11-26T23:54:19.540Z,6.60
2022-11-26T23:56:51.606Z,6.60
2022-11-26T23:59:19.625Z,6.50
